sensor_id;sensor_type;location;lat;lon;timestamp;temperature;humidity
8420;DHT22;4247;48.550;8.822;2023-05-07T00:01:08;13.90;99.90
8420;DHT22;4247;48.550;8.822;2023-05-07T00:03:36;13.80;99.90
8420;DHT22;4247;48.550;8.822;2023-05-07T00:06:03;13.90;99.90
8420;DHT22;4247;48.550;8.822;2023-05-07T00:08:30;13.80;99.90
8420;DHT22;4247;48.550;8.822;2023-05-07T00:10:56;13.90;99.90
8420;DHT22;4247;48.550;8.822;2023-05-07T00:13:23;13.80;99.90
8420;DHT22;4247;48.550;8.822;2023-05-07T00:15:51;13.80;99.90
8420;DHT22;4247;48.550;8.822;2023-05-07T00:18:18;13.80;99.90
8420;DHT22;4247;48.550;8.822;2023-05-07T00:20:46;13.80;99.90
8420;DHT22;4247;48.550;8.822;2023-05-07T00:23:13;13.80;99.90
8420;DHT22;4247;48.550;8.822;2023-05-07T00:25:39;13.70;99.90
8420;DHT22;4247;48.550;8.822;2023-05-07T00:28:06;13.70;99.90
8420;DHT22;4247;48.550;8.822;2023-05-07T00:30:33;13.70;99.90
8420;DHT22;4247;48.550;8.822;2023-05-07T00:33:01;13.70;99.90
8420;DHT22;4247;48.550;8.822;2023-05-07T00:35:28;13.70;99.90
8420;DHT22;4247;48.550;8.822;2023-05-07T00:37:55;13.60;99.90
8420;DHT22;4247;48.550;8.822;2023-05-07T00:40:22;13.60;99.90
8420;DHT22;4247;48.550;8.822;2023-05-07T00:42:48;13.60;99.90
8420;DHT22;4247;48.550;8.822;2023-05-07T00:45:16;13.60;99.90
8420;DHT22;4247;48.550;8.822;2023-05-07T00:47:43;13.60;99.90
8420;DHT22;4247;48.550;8.822;2023-05-07T00:50:11;13.60;99.90
8420;DHT22;4247;48.550;8.822;2023-05-07T00:52:39;13.60;99.90
8420;DHT22;4247;48.550;8.822;2023-05-07T00:55:07;13.60;99.90
8420;DHT22;4247;48.550;8.822;2023-05-07T00:57:36;13.60;99.90
8420;DHT22;4247;48.550;8.822;2023-05-07T01:00:04;13.60;99.90
8420;DHT22;4247;48.550;8.822;2023-05-07T01:02:31;13.60;99.90
8420;DHT22;4247;48.550;8.822;2023-05-07T01:04:58;13.60;99.90
8420;DHT22;4247;48.550;8.822;2023-05-07T01:07:28;13.50;99.90
8420;DHT22;4247;48.550;8.822;2023-05-07T01:09:56;13.50;99.90
8420;DHT22;4247;48.550;8.822;2023-05-07T01:12:24;13.50;99.90
8420;DHT22;4247;48.550;8.822;2023-05-07T01:14:52;13.50;99.90
8420;DHT22;4247;48.550;8.822;2023-05-07T01:17:18;13.50;99.90
8420;DHT22;4247;48.550;8.822;2023-05-07T01:19:45;13.40;99.90
8420;DHT22;4247;48.550;8.822;2023-05-07T01:22:15;13.50;99.90
8420;DHT22;4247;48.550;8.822;2023-05-07T01:24:44;13.40;99.90
8420;DHT22;4247;48.550;8.822;2023-05-07T01:27:11;13.40;99.90
8420;DHT22;4247;48.550;8.822;2023-05-07T01:29:38;13.40;99.90
8420;DHT22;4247;48.550;8.822;2023-05-07T01:32:05;13.40;99.90
8420;DHT22;4247;48.550;8.822;2023-05-07T01:34:33;13.40;99.90
8420;DHT22;4247;48.550;8.822;2023-05-07T01:37:01;13.30;99.90
8420;DHT22;4247;48.550;8.822;2023-05-07T01:39:29;13.30;99.90
8420;DHT22;4247;48.550;8.822;2023-05-07T01:41:59;13.30;99.90
8420;DHT22;4247;48.550;8.822;2023-05-07T01:44:26;13.30;99.90
8420;DHT22;4247;48.550;8.822;2023-05-07T01:46:53;13.30;99.90
8420;DHT22;4247;48.550;8.822;2023-05-07T01:49:20;13.30;99.90
8420;DHT22;4247;48.550;8.822;2023-05-07T01:51:47;13.30;99.90
8420;DHT22;4247;48.550;8.822;2023-05-07T01:54:14;13.30;99.90
8420;DHT22;4247;48.550;8.822;2023-05-07T01:56:42;13.30;99.90
8420;DHT22;4247;48.550;8.822;2023-05-07T01:59:10;13.30;99.90
8420;DHT22;4247;48.550;8.822;2023-05-07T02:01:36;13.20;99.90
8420;DHT22;4247;48.550;8.822;2023-05-07T02:04:03;13.20;99.90
8420;DHT22;4247;48.550;8.822;2023-05-07T02:06:30;13.20;99.90
8420;DHT22;4247;48.550;8.822;2023-05-07T02:08:57;13.10;99.90
8420;DHT22;4247;48.550;8.822;2023-05-07T02:11:23;13.10;99.90
8420;DHT22;4247;48.550;8.822;2023-05-07T02:13:50;13.10;99.90
8420;DHT22;4247;48.550;8.822;2023-05-07T02:16:19;13.10;99.90
8420;DHT22;4247;48.550;8.822;2023-05-07T02:18:47;13.10;99.90
8420;DHT22;4247;48.550;8.822;2023-05-07T02:21:13;13.00;99.90
8420;DHT22;4247;48.550;8.822;2023-05-07T02:23:40;13.00;99.90
8420;DHT22;4247;48.550;8.822;2023-05-07T02:26:07;12.90;99.90
8420;DHT22;4247;48.550;8.822;2023-05-07T02:28:34;12.90;99.90
8420;DHT22;4247;48.550;8.822;2023-05-07T02:31:02;12.90;99.90
8420;DHT22;4247;48.550;8.822;2023-05-07T02:33:30;12.80;99.90
8420;DHT22;4247;48.550;8.822;2023-05-07T02:36:05;12.80;99.90
8420;DHT22;4247;48.550;8.822;2023-05-07T02:38:32;12.80;99.90
8420;DHT22;4247;48.550;8.822;2023-05-07T02:40:58;12.70;99.90
8420;DHT22;4247;48.550;8.822;2023-05-07T02:43:25;12.70;99.90
8420;DHT22;4247;48.550;8.822;2023-05-07T02:46:00;12.70;99.90
8420;DHT22;4247;48.550;8.822;2023-05-07T02:48:27;12.70;99.90
8420;DHT22;4247;48.550;8.822;2023-05-07T02:50:55;12.70;99.90
8420;DHT22;4247;48.550;8.822;2023-05-07T02:53:21;12.70;99.90
8420;DHT22;4247;48.550;8.822;2023-05-07T02:55:50;12.60;99.90
8420;DHT22;4247;48.550;8.822;2023-05-07T02:58:17;12.60;99.90
8420;DHT22;4247;48.550;8.822;2023-05-07T03:00:44;12.50;99.90
8420;DHT22;4247;48.550;8.822;2023-05-07T03:03:11;12.50;99.90
8420;DHT22;4247;48.550;8.822;2023-05-07T03:05:37;12.50;99.90
8420;DHT22;4247;48.550;8.822;2023-05-07T03:08:06;12.40;99.90
8420;DHT22;4247;48.550;8.822;2023-05-07T03:10:33;12.40;99.90
8420;DHT22;4247;48.550;8.822;2023-05-07T03:13:00;12.40;99.90
8420;DHT22;4247;48.550;8.822;2023-05-07T03:15:27;12.30;99.90
8420;DHT22;4247;48.550;8.822;2023-05-07T03:17:54;12.20;99.90
8420;DHT22;4247;48.550;8.822;2023-05-07T03:20:21;12.20;99.90
8420;DHT22;4247;48.550;8.822;2023-05-07T03:22:47;12.20;99.90
8420;DHT22;4247;48.550;8.822;2023-05-07T03:25:15;12.20;99.90
8420;DHT22;4247;48.550;8.822;2023-05-07T03:27:42;12.20;99.90
8420;DHT22;4247;48.550;8.822;2023-05-07T03:30:10;12.10;99.90
8420;DHT22;4247;48.550;8.822;2023-05-07T03:32:38;12.20;99.90
8420;DHT22;4247;48.550;8.822;2023-05-07T03:35:05;12.20;99.90
8420;DHT22;4247;48.550;8.822;2023-05-07T03:37:32;12.20;99.90
8420;DHT22;4247;48.550;8.822;2023-05-07T03:39:59;12.20;99.90
8420;DHT22;4247;48.550;8.822;2023-05-07T03:42:28;12.10;99.90
8420;DHT22;4247;48.550;8.822;2023-05-07T03:44:55;12.10;99.90
8420;DHT22;4247;48.550;8.822;2023-05-07T03:47:22;12.10;99.90
8420;DHT22;4247;48.550;8.822;2023-05-07T03:49:49;12.10;99.90
8420;DHT22;4247;48.550;8.822;2023-05-07T03:52:18;12.10;99.90
8420;DHT22;4247;48.550;8.822;2023-05-07T03:54:49;12.10;99.90
8420;DHT22;4247;48.550;8.822;2023-05-07T03:57:15;12.00;99.90
8420;DHT22;4247;48.550;8.822;2023-05-07T03:59:44;12.00;99.90
8420;DHT22;4247;48.550;8.822;2023-05-07T04:02:11;12.00;99.90
8420;DHT22;4247;48.550;8.822;2023-05-07T04:04:38;12.00;99.90
8420;DHT22;4247;48.550;8.822;2023-05-07T04:07:04;12.00;99.90
8420;DHT22;4247;48.550;8.822;2023-05-07T04:09:32;11.90;99.90
8420;DHT22;4247;48.550;8.822;2023-05-07T04:11:59;11.90;99.90
8420;DHT22;4247;48.550;8.822;2023-05-07T04:14:26;11.90;99.90
8420;DHT22;4247;48.550;8.822;2023-05-07T04:16:54;11.90;99.90
8420;DHT22;4247;48.550;8.822;2023-05-07T04:19:21;11.90;99.90
8420;DHT22;4247;48.550;8.822;2023-05-07T04:21:48;11.90;99.90
8420;DHT22;4247;48.550;8.822;2023-05-07T04:24:15;11.80;99.90
8420;DHT22;4247;48.550;8.822;2023-05-07T04:26:41;11.80;99.90
8420;DHT22;4247;48.550;8.822;2023-05-07T04:29:08;11.80;99.90
8420;DHT22;4247;48.550;8.822;2023-05-07T04:31:35;11.80;99.90
8420;DHT22;4247;48.550;8.822;2023-05-07T04:34:03;11.80;99.90
8420;DHT22;4247;48.550;8.822;2023-05-07T04:36:30;11.80;99.90
8420;DHT22;4247;48.550;8.822;2023-05-07T04:38:58;11.80;99.90
8420;DHT22;4247;48.550;8.822;2023-05-07T04:41:25;11.90;99.90
8420;DHT22;4247;48.550;8.822;2023-05-07T04:43:53;11.90;99.90
8420;DHT22;4247;48.550;8.822;2023-05-07T04:46:19;12.00;99.90
8420;DHT22;4247;48.550;8.822;2023-05-07T04:48:46;12.00;99.90
8420;DHT22;4247;48.550;8.822;2023-05-07T04:51:14;12.10;99.90
8420;DHT22;4247;48.550;8.822;2023-05-07T04:53:41;12.20;99.90
8420;DHT22;4247;48.550;8.822;2023-05-07T04:56:08;12.30;99.90
8420;DHT22;4247;48.550;8.822;2023-05-07T04:58:35;12.30;99.90
8420;DHT22;4247;48.550;8.822;2023-05-07T05:01:01;12.40;99.90
8420;DHT22;4247;48.550;8.822;2023-05-07T05:03:28;12.60;99.90
8420;DHT22;4247;48.550;8.822;2023-05-07T05:05:55;12.70;99.90
8420;DHT22;4247;48.550;8.822;2023-05-07T05:08:26;12.80;99.90
8420;DHT22;4247;48.550;8.822;2023-05-07T05:10:52;12.90;99.90
8420;DHT22;4247;48.550;8.822;2023-05-07T05:13:19;13.00;99.90
8420;DHT22;4247;48.550;8.822;2023-05-07T05:15:46;13.10;99.90
8420;DHT22;4247;48.550;8.822;2023-05-07T05:18:13;13.20;99.90
8420;DHT22;4247;48.550;8.822;2023-05-07T05:20:39;13.40;99.90
8420;DHT22;4247;48.550;8.822;2023-05-07T05:23:07;13.50;99.90
8420;DHT22;4247;48.550;8.822;2023-05-07T05:25:36;13.70;99.90
8420;DHT22;4247;48.550;8.822;2023-05-07T05:28:02;13.80;99.90
8420;DHT22;4247;48.550;8.822;2023-05-07T05:30:29;13.90;99.90
8420;DHT22;4247;48.550;8.822;2023-05-07T05:32:56;14.00;99.90
8420;DHT22;4247;48.550;8.822;2023-05-07T05:35:22;14.00;99.90
8420;DHT22;4247;48.550;8.822;2023-05-07T05:37:49;14.20;99.90
8420;DHT22;4247;48.550;8.822;2023-05-07T05:40:16;14.30;99.90
8420;DHT22;4247;48.550;8.822;2023-05-07T05:42:44;14.40;99.90
8420;DHT22;4247;48.550;8.822;2023-05-07T05:45:11;14.50;99.90
8420;DHT22;4247;48.550;8.822;2023-05-07T05:47:37;14.60;99.90
8420;DHT22;4247;48.550;8.822;2023-05-07T05:50:05;14.60;99.90
8420;DHT22;4247;48.550;8.822;2023-05-07T05:52:32;14.70;99.90
8420;DHT22;4247;48.550;8.822;2023-05-07T05:54:59;14.70;99.90
8420;DHT22;4247;48.550;8.822;2023-05-07T05:57:26;14.70;99.90
8420;DHT22;4247;48.550;8.822;2023-05-07T05:59:54;14.70;99.90
8420;DHT22;4247;48.550;8.822;2023-05-07T06:02:20;14.70;99.90
8420;DHT22;4247;48.550;8.822;2023-05-07T06:04:47;14.70;99.90
8420;DHT22;4247;48.550;8.822;2023-05-07T06:07:14;14.80;99.90
8420;DHT22;4247;48.550;8.822;2023-05-07T06:09:41;14.80;99.90
8420;DHT22;4247;48.550;8.822;2023-05-07T06:12:07;14.90;99.90
8420;DHT22;4247;48.550;8.822;2023-05-07T06:14:34;15.00;99.90
8420;DHT22;4247;48.550;8.822;2023-05-07T06:17:02;15.10;99.90
8420;DHT22;4247;48.550;8.822;2023-05-07T06:19:29;15.10;99.90
8420;DHT22;4247;48.550;8.822;2023-05-07T06:21:56;15.20;99.90
8420;DHT22;4247;48.550;8.822;2023-05-07T06:24:23;15.20;99.90
8420;DHT22;4247;48.550;8.822;2023-05-07T06:26:50;15.30;99.90
8420;DHT22;4247;48.550;8.822;2023-05-07T06:29:17;15.40;99.90
8420;DHT22;4247;48.550;8.822;2023-05-07T06:31:43;15.60;99.90
8420;DHT22;4247;48.550;8.822;2023-05-07T06:34:12;15.60;99.90
8420;DHT22;4247;48.550;8.822;2023-05-07T06:36:40;15.70;99.90
8420;DHT22;4247;48.550;8.822;2023-05-07T06:39:07;15.70;99.90
8420;DHT22;4247;48.550;8.822;2023-05-07T06:41:33;15.70;99.90
8420;DHT22;4247;48.550;8.822;2023-05-07T06:44:01;15.80;99.90
8420;DHT22;4247;48.550;8.822;2023-05-07T06:46:27;15.80;99.90
8420;DHT22;4247;48.550;8.822;2023-05-07T06:48:54;15.90;99.90
8420;DHT22;4247;48.550;8.822;2023-05-07T06:51:23;15.90;99.90
8420;DHT22;4247;48.550;8.822;2023-05-07T06:53:50;15.90;99.90
8420;DHT22;4247;48.550;8.822;2023-05-07T06:56:17;16.00;99.90
8420;DHT22;4247;48.550;8.822;2023-05-07T06:58:44;16.20;99.90
8420;DHT22;4247;48.550;8.822;2023-05-07T07:01:10;16.20;99.90
8420;DHT22;4247;48.550;8.822;2023-05-07T07:03:37;16.40;99.90
8420;DHT22;4247;48.550;8.822;2023-05-07T07:06:04;16.50;99.90
8420;DHT22;4247;48.550;8.822;2023-05-07T07:08:32;16.60;99.90
8420;DHT22;4247;48.550;8.822;2023-05-07T07:10:59;16.80;99.90
8420;DHT22;4247;48.550;8.822;2023-05-07T07:13:26;16.90;99.90
8420;DHT22;4247;48.550;8.822;2023-05-07T07:15:53;17.10;99.90
8420;DHT22;4247;48.550;8.822;2023-05-07T07:18:20;17.10;99.90
8420;DHT22;4247;48.550;8.822;2023-05-07T07:20:46;17.20;99.90
8420;DHT22;4247;48.550;8.822;2023-05-07T07:23:13;17.30;99.90
8420;DHT22;4247;48.550;8.822;2023-05-07T07:25:41;17.40;99.90
8420;DHT22;4247;48.550;8.822;2023-05-07T07:28:08;17.40;99.90
8420;DHT22;4247;48.550;8.822;2023-05-07T07:30:36;17.50;99.90
8420;DHT22;4247;48.550;8.822;2023-05-07T07:33:03;17.50;99.90
8420;DHT22;4247;48.550;8.822;2023-05-07T07:35:30;17.60;99.90
8420;DHT22;4247;48.550;8.822;2023-05-07T07:37:57;17.60;99.90
8420;DHT22;4247;48.550;8.822;2023-05-07T07:40:24;17.60;99.90
8420;DHT22;4247;48.550;8.822;2023-05-07T07:42:53;17.50;99.90
8420;DHT22;4247;48.550;8.822;2023-05-07T07:45:20;17.50;99.90
8420;DHT22;4247;48.550;8.822;2023-05-07T07:47:46;17.50;99.90
8420;DHT22;4247;48.550;8.822;2023-05-07T07:50:13;17.50;99.90
8420;DHT22;4247;48.550;8.822;2023-05-07T07:52:40;17.60;99.90
8420;DHT22;4247;48.550;8.822;2023-05-07T07:55:08;17.60;99.90
8420;DHT22;4247;48.550;8.822;2023-05-07T07:57:35;17.70;99.90
8420;DHT22;4247;48.550;8.822;2023-05-07T08:00:04;17.80;99.90
8420;DHT22;4247;48.550;8.822;2023-05-07T08:02:31;18.00;99.90
8420;DHT22;4247;48.550;8.822;2023-05-07T08:04:58;18.20;99.90
8420;DHT22;4247;48.550;8.822;2023-05-07T08:07:25;18.40;99.90
8420;DHT22;4247;48.550;8.822;2023-05-07T08:09:52;18.70;99.90
8420;DHT22;4247;48.550;8.822;2023-05-07T08:12:18;18.90;99.90
8420;DHT22;4247;48.550;8.822;2023-05-07T08:14:45;19.20;99.90
8420;DHT22;4247;48.550;8.822;2023-05-07T08:17:14;19.50;99.90
8420;DHT22;4247;48.550;8.822;2023-05-07T08:19:41;19.80;99.90
8420;DHT22;4247;48.550;8.822;2023-05-07T08:22:08;19.90;99.90
8420;DHT22;4247;48.550;8.822;2023-05-07T08:24:36;20.00;99.90
8420;DHT22;4247;48.550;8.822;2023-05-07T08:27:02;20.20;99.90
8420;DHT22;4247;48.550;8.822;2023-05-07T08:29:29;20.10;99.90
8420;DHT22;4247;48.550;8.822;2023-05-07T08:31:56;20.20;99.90
8420;DHT22;4247;48.550;8.822;2023-05-07T08:34:24;20.30;99.90
8420;DHT22;4247;48.550;8.822;2023-05-07T08:36:51;20.40;99.90
8420;DHT22;4247;48.550;8.822;2023-05-07T08:39:17;20.50;99.90
8420;DHT22;4247;48.550;8.822;2023-05-07T08:41:45;20.50;99.90
8420;DHT22;4247;48.550;8.822;2023-05-07T08:44:12;20.60;99.90
8420;DHT22;4247;48.550;8.822;2023-05-07T08:46:41;20.40;99.90
8420;DHT22;4247;48.550;8.822;2023-05-07T08:49:09;20.30;99.90
8420;DHT22;4247;48.550;8.822;2023-05-07T08:51:37;20.30;99.90
8420;DHT22;4247;48.550;8.822;2023-05-07T08:54:04;20.20;99.90
8420;DHT22;4247;48.550;8.822;2023-05-07T08:56:32;20.20;99.90
8420;DHT22;4247;48.550;8.822;2023-05-07T08:58:58;20.30;99.90
8420;DHT22;4247;48.550;8.822;2023-05-07T09:01:26;20.30;99.90
8420;DHT22;4247;48.550;8.822;2023-05-07T09:03:53;20.40;99.90
8420;DHT22;4247;48.550;8.822;2023-05-07T09:06:20;20.40;99.90
8420;DHT22;4247;48.550;8.822;2023-05-07T09:08:51;20.50;99.90
8420;DHT22;4247;48.550;8.822;2023-05-07T09:11:20;20.50;99.90
8420;DHT22;4247;48.550;8.822;2023-05-07T09:13:48;20.60;99.90
8420;DHT22;4247;48.550;8.822;2023-05-07T09:16:15;20.70;99.90
8420;DHT22;4247;48.550;8.822;2023-05-07T09:18:43;20.60;99.20
8420;DHT22;4247;48.550;8.822;2023-05-07T09:21:10;20.70;99.90
8420;DHT22;4247;48.550;8.822;2023-05-07T09:23:38;20.70;99.90
8420;DHT22;4247;48.550;8.822;2023-05-07T09:26:06;20.80;99.90
8420;DHT22;4247;48.550;8.822;2023-05-07T09:28:38;20.80;99.90
8420;DHT22;4247;48.550;8.822;2023-05-07T09:31:05;20.90;99.90
8420;DHT22;4247;48.550;8.822;2023-05-07T09:33:32;21.00;99.90
8420;DHT22;4247;48.550;8.822;2023-05-07T09:36:02;21.00;99.90
8420;DHT22;4247;48.550;8.822;2023-05-07T09:38:30;21.10;99.90
8420;DHT22;4247;48.550;8.822;2023-05-07T09:41:02;21.20;99.90
8420;DHT22;4247;48.550;8.822;2023-05-07T09:43:33;21.30;99.90
8420;DHT22;4247;48.550;8.822;2023-05-07T09:46:03;21.20;99.50
8420;DHT22;4247;48.550;8.822;2023-05-07T09:48:33;21.40;99.90
8420;DHT22;4247;48.550;8.822;2023-05-07T09:51:03;21.40;99.90
8420;DHT22;4247;48.550;8.822;2023-05-07T09:53:33;21.40;99.60
8420;DHT22;4247;48.550;8.822;2023-05-07T09:56:01;21.40;99.50
8420;DHT22;4247;48.550;8.822;2023-05-07T09:58:28;21.40;99.40
8420;DHT22;4247;48.550;8.822;2023-05-07T10:00:57;21.40;99.50
8420;DHT22;4247;48.550;8.822;2023-05-07T10:03:24;21.50;99.90
8420;DHT22;4247;48.550;8.822;2023-05-07T10:05:53;21.50;99.20
8420;DHT22;4247;48.550;8.822;2023-05-07T10:08:20;21.60;99.50
8420;DHT22;4247;48.550;8.822;2023-05-07T10:10:47;21.60;99.30
8420;DHT22;4247;48.550;8.822;2023-05-07T10:13:13;21.60;99.20
8420;DHT22;4247;48.550;8.822;2023-05-07T10:15:41;21.60;98.20
8420;DHT22;4247;48.550;8.822;2023-05-07T10:18:10;21.70;98.90
8420;DHT22;4247;48.550;8.822;2023-05-07T10:20:39;21.60;98.40
8420;DHT22;4247;48.550;8.822;2023-05-07T10:23:07;21.60;98.30
8420;DHT22;4247;48.550;8.822;2023-05-07T10:25:36;21.80;99.50
8420;DHT22;4247;48.550;8.822;2023-05-07T10:28:06;21.80;98.40
8420;DHT22;4247;48.550;8.822;2023-05-07T10:30:47;21.80;99.20
8420;DHT22;4247;48.550;8.822;2023-05-07T10:33:22;21.90;98.90
8420;DHT22;4247;48.550;8.822;2023-05-07T10:35:51;21.90;98.60
8420;DHT22;4247;48.550;8.822;2023-05-07T10:38:21;21.80;98.30
8420;DHT22;4247;48.550;8.822;2023-05-07T10:40:48;21.80;97.40
8420;DHT22;4247;48.550;8.822;2023-05-07T10:43:16;21.70;97.80
8420;DHT22;4247;48.550;8.822;2023-05-07T10:45:44;21.80;98.10
8420;DHT22;4247;48.550;8.822;2023-05-07T10:48:32;22.00;98.70
8420;DHT22;4247;48.550;8.822;2023-05-07T10:51:19;22.00;97.90
8420;DHT22;4247;48.550;8.822;2023-05-07T10:53:46;22.20;98.90
8420;DHT22;4247;48.550;8.822;2023-05-07T10:56:26;22.20;98.80
8420;DHT22;4247;48.550;8.822;2023-05-07T10:58:54;22.40;98.60
8420;DHT22;4247;48.550;8.822;2023-05-07T11:01:52;22.50;98.90
8420;DHT22;4247;48.550;8.822;2023-05-07T11:04:21;22.60;97.90
8420;DHT22;4247;48.550;8.822;2023-05-07T11:07:21;22.60;97.60
8420;DHT22;4247;48.550;8.822;2023-05-07T11:10:03;22.60;96.60
8420;DHT22;4247;48.550;8.822;2023-05-07T11:12:53;22.60;96.90
8420;DHT22;4247;48.550;8.822;2023-05-07T11:15:40;22.70;96.60
8420;DHT22;4247;48.550;8.822;2023-05-07T11:18:09;22.70;96.90
8420;DHT22;4247;48.550;8.822;2023-05-07T11:20:51;22.70;97.20
8420;DHT22;4247;48.550;8.822;2023-05-07T11:26:22;22.70;96.20
8420;DHT22;4247;48.550;8.822;2023-05-07T11:28:49;22.70;96.60
8420;DHT22;4247;48.550;8.822;2023-05-07T11:31:21;22.60;95.80
8420;DHT22;4247;48.550;8.822;2023-05-07T11:33:48;22.60;96.90
8420;DHT22;4247;48.550;8.822;2023-05-07T11:36:16;22.40;95.70
8420;DHT22;4247;48.550;8.822;2023-05-07T11:38:44;22.30;96.00
8420;DHT22;4247;48.550;8.822;2023-05-07T11:41:11;22.20;97.00
8420;DHT22;4247;48.550;8.822;2023-05-07T11:43:39;22.10;95.30
8420;DHT22;4247;48.550;8.822;2023-05-07T11:46:20;21.90;96.40
8420;DHT22;4247;48.550;8.822;2023-05-07T11:48:47;21.60;96.00
8420;DHT22;4247;48.550;8.822;2023-05-07T11:51:20;21.30;96.60
8420;DHT22;4247;48.550;8.822;2023-05-07T11:53:47;21.10;97.10
8420;DHT22;4247;48.550;8.822;2023-05-07T11:56:16;20.80;97.50
8420;DHT22;4247;48.550;8.822;2023-05-07T11:58:44;20.60;97.40
8420;DHT22;4247;48.550;8.822;2023-05-07T12:01:13;20.40;98.10
8420;DHT22;4247;48.550;8.822;2023-05-07T12:03:41;20.10;98.70
8420;DHT22;4247;48.550;8.822;2023-05-07T12:06:09;20.10;98.80
8420;DHT22;4247;48.550;8.822;2023-05-07T12:08:38;20.00;98.70
8420;DHT22;4247;48.550;8.822;2023-05-07T12:11:08;19.90;98.90
8420;DHT22;4247;48.550;8.822;2023-05-07T12:13:36;19.70;99.40
8420;DHT22;4247;48.550;8.822;2023-05-07T12:16:05;19.70;99.80
8420;DHT22;4247;48.550;8.822;2023-05-07T12:18:33;19.60;99.90
8420;DHT22;4247;48.550;8.822;2023-05-07T12:21:00;19.50;99.90
8420;DHT22;4247;48.550;8.822;2023-05-07T12:23:28;19.50;99.90
8420;DHT22;4247;48.550;8.822;2023-05-07T12:25:56;19.40;99.90
8420;DHT22;4247;48.550;8.822;2023-05-07T12:28:23;19.30;99.90
8420;DHT22;4247;48.550;8.822;2023-05-07T12:30:51;19.20;99.90
8420;DHT22;4247;48.550;8.822;2023-05-07T12:33:18;19.10;99.90
8420;DHT22;4247;48.550;8.822;2023-05-07T12:35:47;19.00;99.90
8420;DHT22;4247;48.550;8.822;2023-05-07T12:38:16;19.00;99.90
8420;DHT22;4247;48.550;8.822;2023-05-07T12:40:44;18.80;99.90
8420;DHT22;4247;48.550;8.822;2023-05-07T12:43:17;18.80;99.90
8420;DHT22;4247;48.550;8.822;2023-05-07T12:45:45;18.70;99.90
8420;DHT22;4247;48.550;8.822;2023-05-07T12:48:13;18.50;99.90
8420;DHT22;4247;48.550;8.822;2023-05-07T12:50:40;18.30;99.90
8420;DHT22;4247;48.550;8.822;2023-05-07T12:53:07;18.20;99.90
8420;DHT22;4247;48.550;8.822;2023-05-07T12:55:43;18.00;99.90
8420;DHT22;4247;48.550;8.822;2023-05-07T12:58:24;17.70;99.90
8420;DHT22;4247;48.550;8.822;2023-05-07T13:00:51;17.50;99.90
8420;DHT22;4247;48.550;8.822;2023-05-07T13:03:22;17.30;99.90
8420;DHT22;4247;48.550;8.822;2023-05-07T13:05:49;17.10;99.90
8420;DHT22;4247;48.550;8.822;2023-05-07T13:08:27;17.00;99.90
8420;DHT22;4247;48.550;8.822;2023-05-07T13:10:53;17.00;99.90
8420;DHT22;4247;48.550;8.822;2023-05-07T13:13:22;17.00;99.90
8420;DHT22;4247;48.550;8.822;2023-05-07T13:15:48;17.00;99.90
8420;DHT22;4247;48.550;8.822;2023-05-07T13:18:15;17.00;99.90
8420;DHT22;4247;48.550;8.822;2023-05-07T13:20:41;16.90;99.90
8420;DHT22;4247;48.550;8.822;2023-05-07T13:23:08;16.80;99.90
8420;DHT22;4247;48.550;8.822;2023-05-07T13:25:35;16.60;99.90
8420;DHT22;4247;48.550;8.822;2023-05-07T13:28:02;16.50;99.90
8420;DHT22;4247;48.550;8.822;2023-05-07T13:30:31;16.40;99.90
8420;DHT22;4247;48.550;8.822;2023-05-07T13:32:57;16.40;99.90
8420;DHT22;4247;48.550;8.822;2023-05-07T13:35:24;16.40;99.90
8420;DHT22;4247;48.550;8.822;2023-05-07T13:37:51;16.40;99.90
8420;DHT22;4247;48.550;8.822;2023-05-07T13:40:18;16.30;99.90
8420;DHT22;4247;48.550;8.822;2023-05-07T13:42:45;16.30;99.90
8420;DHT22;4247;48.550;8.822;2023-05-07T13:45:11;16.30;99.90
8420;DHT22;4247;48.550;8.822;2023-05-07T13:47:40;16.40;99.90
8420;DHT22;4247;48.550;8.822;2023-05-07T13:50:08;16.40;99.90
8420;DHT22;4247;48.550;8.822;2023-05-07T13:52:36;16.40;99.90
8420;DHT22;4247;48.550;8.822;2023-05-07T13:55:04;16.40;99.90
8420;DHT22;4247;48.550;8.822;2023-05-07T13:57:31;16.40;99.90
8420;DHT22;4247;48.550;8.822;2023-05-07T13:59:57;16.30;99.90
8420;DHT22;4247;48.550;8.822;2023-05-07T14:02:24;16.40;99.90
8420;DHT22;4247;48.550;8.822;2023-05-07T14:04:52;16.40;99.90
8420;DHT22;4247;48.550;8.822;2023-05-07T14:07:19;16.40;99.90
8420;DHT22;4247;48.550;8.822;2023-05-07T14:09:45;16.50;99.90
8420;DHT22;4247;48.550;8.822;2023-05-07T14:12:12;16.50;99.90
8420;DHT22;4247;48.550;8.822;2023-05-07T14:14:39;16.40;99.90
8420;DHT22;4247;48.550;8.822;2023-05-07T14:17:05;16.30;99.90
8420;DHT22;4247;48.550;8.822;2023-05-07T14:19:33;16.10;99.90
8420;DHT22;4247;48.550;8.822;2023-05-07T14:22:01;16.00;99.90
8420;DHT22;4247;48.550;8.822;2023-05-07T14:24:28;16.00;99.90
8420;DHT22;4247;48.550;8.822;2023-05-07T14:26:55;16.00;99.90
8420;DHT22;4247;48.550;8.822;2023-05-07T14:29:22;16.10;99.90
8420;DHT22;4247;48.550;8.822;2023-05-07T14:31:49;16.10;99.90
8420;DHT22;4247;48.550;8.822;2023-05-07T14:34:16;16.30;99.90
8420;DHT22;4247;48.550;8.822;2023-05-07T14:36:42;16.40;99.90
8420;DHT22;4247;48.550;8.822;2023-05-07T14:39:11;16.30;99.90
8420;DHT22;4247;48.550;8.822;2023-05-07T14:41:37;16.40;99.90
8420;DHT22;4247;48.550;8.822;2023-05-07T14:44:04;16.50;99.90
8420;DHT22;4247;48.550;8.822;2023-05-07T14:46:31;16.40;99.90
8420;DHT22;4247;48.550;8.822;2023-05-07T14:48:57;16.50;99.90
8420;DHT22;4247;48.550;8.822;2023-05-07T14:51:24;16.60;99.90
8420;DHT22;4247;48.550;8.822;2023-05-07T14:53:53;16.70;99.90
8420;DHT22;4247;48.550;8.822;2023-05-07T14:56:21;16.80;99.90
8420;DHT22;4247;48.550;8.822;2023-05-07T14:58:48;16.90;99.90
8420;DHT22;4247;48.550;8.822;2023-05-07T15:01:15;17.00;99.90
8420;DHT22;4247;48.550;8.822;2023-05-07T15:03:42;17.10;99.90
8420;DHT22;4247;48.550;8.822;2023-05-07T15:06:08;17.20;99.90
8420;DHT22;4247;48.550;8.822;2023-05-07T15:08:35;17.30;99.90
8420;DHT22;4247;48.550;8.822;2023-05-07T15:11:02;17.30;99.90
8420;DHT22;4247;48.550;8.822;2023-05-07T15:13:30;17.40;99.90
8420;DHT22;4247;48.550;8.822;2023-05-07T15:15:57;17.50;99.90
8420;DHT22;4247;48.550;8.822;2023-05-07T15:18:23;17.60;99.90
8420;DHT22;4247;48.550;8.822;2023-05-07T15:20:50;17.70;99.90
8420;DHT22;4247;48.550;8.822;2023-05-07T15:23:17;17.80;99.90
8420;DHT22;4247;48.550;8.822;2023-05-07T15:25:44;17.90;99.90
8420;DHT22;4247;48.550;8.822;2023-05-07T15:28:10;18.00;99.90
8420;DHT22;4247;48.550;8.822;2023-05-07T15:30:38;18.10;99.90
8420;DHT22;4247;48.550;8.822;2023-05-07T15:33:05;18.20;99.90
8420;DHT22;4247;48.550;8.822;2023-05-07T15:35:32;18.20;99.90
8420;DHT22;4247;48.550;8.822;2023-05-07T15:37:59;18.30;99.90
8420;DHT22;4247;48.550;8.822;2023-05-07T15:40:28;18.30;99.90
8420;DHT22;4247;48.550;8.822;2023-05-07T15:42:55;18.40;99.90
8420;DHT22;4247;48.550;8.822;2023-05-07T15:45:23;18.40;99.90
8420;DHT22;4247;48.550;8.822;2023-05-07T15:47:51;18.40;99.90
8420;DHT22;4247;48.550;8.822;2023-05-07T15:50:18;18.40;99.90
8420;DHT22;4247;48.550;8.822;2023-05-07T15:52:44;18.50;99.90
8420;DHT22;4247;48.550;8.822;2023-05-07T15:55:11;18.40;99.90
8420;DHT22;4247;48.550;8.822;2023-05-07T15:57:38;18.40;99.90
8420;DHT22;4247;48.550;8.822;2023-05-07T16:00:06;18.40;99.90
8420;DHT22;4247;48.550;8.822;2023-05-07T16:02:36;18.40;99.90
8420;DHT22;4247;48.550;8.822;2023-05-07T16:05:05;18.40;99.90
8420;DHT22;4247;48.550;8.822;2023-05-07T16:07:35;18.30;99.90
8420;DHT22;4247;48.550;8.822;2023-05-07T16:10:02;18.20;99.90